Ixtapa Zihuatanejo, Mexico

8:21 AM CDT on September 02, 2015 (GMT -0500)
Ixtapa-Zihuatanejo International | | Change Station
CLOSE
Current Station
Airport
Location: Ixtapa Zihuatanejo,
Elevation: 20 ft
Nearby Weather Stations

Elev 20 ft 17.60 °N, 101.46 °W | Updated 36 minutes ago

Scattered Clouds
Scattered Clouds
79 °F
Feels Like 79 °F
N
0
Wind Variable Wind from North

Today
High -- | Low -- °F
--% Chance of Precip.
Yesterday
High -- | Low -- °F
Precip. -- in
7:32 AM 7:58 PM
Waning Gibbous, 80% visible
Pressure 29.89 in
Visibility 7.0 miles
Clouds Few 10000 ft
Scattered Clouds 25000 ft
Dew Point 73 °F
Humidity 83%
Rainfall 0.00 in
Snow Depth Not available.
UV 0 out of 12
Pollen Not available.
Air Quality Not available.
Flu Activity Not available.
METAR MMZH 021245Z 00000KT 7SM FEW100 SCT250 26/23 A2989 RMK 8/031 HZY
Pressure 29.89 in
Visibility 7.0 miles
Clouds Few 10000 ft
Scattered Clouds 25000 ft
Dew Point 73 °F
Humidity 83%
Rainfall 0.00 in
Snow Depth Not available.
UV 0 out of 12
Pollen Not available.
Air Quality Not available.
Flu Activity Not available.
METAR MMZH 021245Z 00000KT 7SM FEW100 SCT250 26/23 A2989 RMK 8/031 HZY

10-Day Weather Forecast

×

Almanac

Astronomy

Sep. 02, 2015 Rise Set
Actual Time
Civil Twilight
Nautical Twilight
Astronomical Twilight
Moon
Length of Visible Light
Length of Day
Tomorrow will be .
, % of the Moon is Illuminated

Today's Extremes

Country Highs Country Lows

Community

WunderPhotos

Upload Photos

1,851,749 photos uploaded!

WunderBlogs® & News

Nearby

Air Quality

  Air Quality AQ Index Pollutant
Not available.

Snow Depth

Station Depth Elevation

Earthquake Activity

City Distance Mag. Time & Date
Minimum magnitude displayed is 2.5.

Coastal Water Temperatures

Place Temperature

Stations

Nearby Weather Stations

Station Location Temp. Windchill Dew Point Humidity Wind Precip. Elev Updated Type